sensor_id;sensor_type;location;lat;lon;timestamp;temperature;humidity
71396;DHT22;59888;55.814;37.132;2023-03-23T00:00:43;7.05;51.52
71396;DHT22;59888;55.814;37.132;2023-03-23T00:03:09;7.08;51.30
71396;DHT22;59888;55.814;37.132;2023-03-23T00:05:35;7.09;51.49
71396;DHT22;59888;55.814;37.132;2023-03-23T00:08:02;7.11;51.53
71396;DHT22;59888;55.814;37.132;2023-03-23T00:10:29;7.13;51.65
71396;DHT22;59888;55.814;37.132;2023-03-23T00:12:58;7.17;51.24
71396;DHT22;59888;55.814;37.132;2023-03-23T00:15:28;7.16;51.46
71396;DHT22;59888;55.814;37.132;2023-03-23T00:18:00;7.16;51.61
71396;DHT22;59888;55.814;37.132;2023-03-23T00:20:30;7.12;52.04
71396;DHT22;59888;55.814;37.132;2023-03-23T00:23:05;7.12;52.01
71396;DHT22;59888;55.814;37.132;2023-03-23T00:25:32;7.12;51.12
71396;DHT22;59888;55.814;37.132;2023-03-23T00:27:57;7.11;52.00
71396;DHT22;59888;55.814;37.132;2023-03-23T00:30:23;7.16;51.49
71396;DHT22;59888;55.814;37.132;2023-03-23T00:32:49;7.24;51.53
71396;DHT22;59888;55.814;37.132;2023-03-23T00:35:16;7.22;51.37
71396;DHT22;59888;55.814;37.132;2023-03-23T00:37:43;7.23;51.37
71396;DHT22;59888;55.814;37.132;2023-03-23T00:40:09;7.20;51.88
71396;DHT22;59888;55.814;37.132;2023-03-23T00:42:37;7.20;51.94
71396;DHT22;59888;55.814;37.132;2023-03-23T00:45:04;7.22;51.33
71396;DHT22;59888;55.814;37.132;2023-03-23T00:47:38;7.25;51.15
71396;DHT22;59888;55.814;37.132;2023-03-23T00:50:07;7.24;50.98
71396;DHT22;59888;55.814;37.132;2023-03-23T00:52:33;7.18;50.65
71396;DHT22;59888;55.814;37.132;2023-03-23T00:54:59;7.18;51.12
71396;DHT22;59888;55.814;37.132;2023-03-23T00:57:24;7.17;51.85
71396;DHT22;59888;55.814;37.132;2023-03-23T00:59:51;7.15;51.59
71396;DHT22;59888;55.814;37.132;2023-03-23T01:02:17;7.19;51.62
71396;DHT22;59888;55.814;37.132;2023-03-23T01:04:43;7.19;51.75
71396;DHT22;59888;55.814;37.132;2023-03-23T01:07:10;7.18;51.77
71396;DHT22;59888;55.814;37.132;2023-03-23T01:09:39;7.16;51.69
71396;DHT22;59888;55.814;37.132;2023-03-23T01:12:05;7.15;51.79
71396;DHT22;59888;55.814;37.132;2023-03-23T01:14:31;7.18;51.44
71396;DHT22;59888;55.814;37.132;2023-03-23T01:16:57;7.19;51.61
71396;DHT22;59888;55.814;37.132;2023-03-23T01:19:23;7.16;51.52
71396;DHT22;59888;55.814;37.132;2023-03-23T01:21:49;7.17;51.82
71396;DHT22;59888;55.814;37.132;2023-03-23T01:24:14;7.22;51.81
71396;DHT22;59888;55.814;37.132;2023-03-23T01:26:40;7.20;51.80
71396;DHT22;59888;55.814;37.132;2023-03-23T01:29:06;7.23;51.72
71396;DHT22;59888;55.814;37.132;2023-03-23T01:31:33;7.20;51.72
71396;DHT22;59888;55.814;37.132;2023-03-23T01:34:03;7.22;51.70
71396;DHT22;59888;55.814;37.132;2023-03-23T01:36:29;7.19;51.38
71396;DHT22;59888;55.814;37.132;2023-03-23T01:39:00;7.15;51.98
71396;DHT22;59888;55.814;37.132;2023-03-23T01:41:29;7.12;52.04
71396;DHT22;59888;55.814;37.132;2023-03-23T01:46:30;7.03;52.10
71396;DHT22;59888;55.814;37.132;2023-03-23T01:48:56;7.01;51.35
71396;DHT22;59888;55.814;37.132;2023-03-23T01:51:23;6.97;52.42
71396;DHT22;59888;55.814;37.132;2023-03-23T01:53:53;6.95;51.85
71396;DHT22;59888;55.814;37.132;2023-03-23T01:56:20;6.95;52.14
71396;DHT22;59888;55.814;37.132;2023-03-23T01:58:51;6.91;52.43
71396;DHT22;59888;55.814;37.132;2023-03-23T02:01:17;6.93;52.14
71396;DHT22;59888;55.814;37.132;2023-03-23T02:03:44;6.88;52.31
71396;DHT22;59888;55.814;37.132;2023-03-23T02:06:11;6.87;52.36
71396;DHT22;59888;55.814;37.132;2023-03-23T02:08:52;6.85;52.40
71396;DHT22;59888;55.814;37.132;2023-03-23T02:11:19;6.80;52.75
71396;DHT22;59888;55.814;37.132;2023-03-23T02:13:45;6.76;52.72
71396;DHT22;59888;55.814;37.132;2023-03-23T02:26:39;6.59;52.74
71396;DHT22;59888;55.814;37.132;2023-03-23T02:34:30;6.44;52.78
71396;DHT22;59888;55.814;37.132;2023-03-23T02:37:31;6.38;53.39
71396;DHT22;59888;55.814;37.132;2023-03-23T02:39:56;6.35;53.69
71396;DHT22;59888;55.814;37.132;2023-03-23T02:42:24;6.29;53.65
71396;DHT22;59888;55.814;37.132;2023-03-23T02:44:51;6.25;53.53
71396;DHT22;59888;55.814;37.132;2023-03-23T02:47:20;6.16;53.66
71396;DHT22;59888;55.814;37.132;2023-03-23T02:49:48;6.12;53.69
71396;DHT22;59888;55.814;37.132;2023-03-23T02:52:17;6.05;54.08
71396;DHT22;59888;55.814;37.132;2023-03-23T02:54:46;5.98;54.06
71396;DHT22;59888;55.814;37.132;2023-03-23T02:57:13;5.93;54.42
71396;DHT22;59888;55.814;37.132;2023-03-23T02:59:42;5.89;53.94
71396;DHT22;59888;55.814;37.132;2023-03-23T03:02:17;5.86;54.43
71396;DHT22;59888;55.814;37.132;2023-03-23T03:04:54;5.84;55.11
71396;DHT22;59888;55.814;37.132;2023-03-23T03:09:58;5.79;56.84
71396;DHT22;59888;55.814;37.132;2023-03-23T03:12:31;5.74;55.39
71396;DHT22;59888;55.814;37.132;2023-03-23T03:15:06;5.72;55.18
71396;DHT22;59888;55.814;37.132;2023-03-23T03:17:35;5.70;55.36
71396;DHT22;59888;55.814;37.132;2023-03-23T03:20:05;5.68;55.16
71396;DHT22;59888;55.814;37.132;2023-03-23T03:22:34;5.65;55.23
71396;DHT22;59888;55.814;37.132;2023-03-23T03:25:03;5.63;55.11
71396;DHT22;59888;55.814;37.132;2023-03-23T03:27:29;5.63;55.42
71396;DHT22;59888;55.814;37.132;2023-03-23T03:30:11;5.61;55.48
71396;DHT22;59888;55.814;37.132;2023-03-23T03:32:46;5.59;56.08
71396;DHT22;59888;55.814;37.132;2023-03-23T03:35:15;5.59;55.49
71396;DHT22;59888;55.814;37.132;2023-03-23T03:37:41;5.57;55.22
71396;DHT22;59888;55.814;37.132;2023-03-23T03:40:13;5.53;56.16
71396;DHT22;59888;55.814;37.132;2023-03-23T03:42:40;5.54;55.98
71396;DHT22;59888;55.814;37.132;2023-03-23T03:45:08;5.57;56.15
71396;DHT22;59888;55.814;37.132;2023-03-23T03:47:34;5.57;56.34
71396;DHT22;59888;55.814;37.132;2023-03-23T03:50:00;5.57;56.27
71396;DHT22;59888;55.814;37.132;2023-03-23T03:52:26;5.60;55.36
71396;DHT22;59888;55.814;37.132;2023-03-23T03:54:53;5.60;55.37
71396;DHT22;59888;55.814;37.132;2023-03-23T03:57:19;5.59;55.70
71396;DHT22;59888;55.814;37.132;2023-03-23T04:00:04;5.60;54.77
71396;DHT22;59888;55.814;37.132;2023-03-23T04:02:42;5.57;55.56
71396;DHT22;59888;55.814;37.132;2023-03-23T04:05:10;5.57;56.15
71396;DHT22;59888;55.814;37.132;2023-03-23T04:07:37;5.60;56.88
71396;DHT22;59888;55.814;37.132;2023-03-23T04:10:05;5.63;56.73
71396;DHT22;59888;55.814;37.132;2023-03-23T04:12:31;5.64;56.70
71396;DHT22;59888;55.814;37.132;2023-03-23T04:14:57;5.66;56.74
71396;DHT22;59888;55.814;37.132;2023-03-23T04:17:30;5.71;55.55
71396;DHT22;59888;55.814;37.132;2023-03-23T04:19:56;5.74;57.25
71396;DHT22;59888;55.814;37.132;2023-03-23T04:22:23;5.79;56.62
71396;DHT22;59888;55.814;37.132;2023-03-23T04:24:56;5.82;56.72
71396;DHT22;59888;55.814;37.132;2023-03-23T04:27:25;5.87;55.80
71396;DHT22;59888;55.814;37.132;2023-03-23T04:29:50;5.89;56.50
71396;DHT22;59888;55.814;37.132;2023-03-23T04:32:39;5.92;57.13
71396;DHT22;59888;55.814;37.132;2023-03-23T04:35:07;5.98;57.39
71396;DHT22;59888;55.814;37.132;2023-03-23T04:37:40;6.02;55.23
71396;DHT22;59888;55.814;37.132;2023-03-23T04:40:07;6.08;56.73
71396;DHT22;59888;55.814;37.132;2023-03-23T04:42:38;6.15;55.92
71396;DHT22;59888;55.814;37.132;2023-03-23T04:45:30;6.20;57.55
71396;DHT22;59888;55.814;37.132;2023-03-23T04:47:59;6.29;56.59
71396;DHT22;59888;55.814;37.132;2023-03-23T04:50:38;6.35;56.25
71396;DHT22;59888;55.814;37.132;2023-03-23T04:53:15;6.37;56.65
71396;DHT22;59888;55.814;37.132;2023-03-23T04:55:43;6.39;56.82
71396;DHT22;59888;55.814;37.132;2023-03-23T04:58:12;6.43;57.80
71396;DHT22;59888;55.814;37.132;2023-03-23T05:01:02;6.53;57.94
71396;DHT22;59888;55.814;37.132;2023-03-23T05:03:30;6.60;56.19
71396;DHT22;59888;55.814;37.132;2023-03-23T05:05:57;6.68;55.96
71396;DHT22;59888;55.814;37.132;2023-03-23T05:08:23;6.72;56.30
71396;DHT22;59888;55.814;37.132;2023-03-23T05:10:54;6.81;56.61
71396;DHT22;59888;55.814;37.132;2023-03-23T05:13:24;6.88;56.45
71396;DHT22;59888;55.814;37.132;2023-03-23T05:15:53;6.97;56.06
71396;DHT22;59888;55.814;37.132;2023-03-23T05:18:18;7.02;56.19
71396;DHT22;59888;55.814;37.132;2023-03-23T05:20:46;7.11;56.71
71396;DHT22;59888;55.814;37.132;2023-03-23T05:23:18;7.23;55.44
71396;DHT22;59888;55.814;37.132;2023-03-23T05:25:53;7.33;55.37
71396;DHT22;59888;55.814;37.132;2023-03-23T05:28:19;7.46;55.15
71396;DHT22;59888;55.814;37.132;2023-03-23T05:31:03;7.53;55.61
71396;DHT22;59888;55.814;37.132;2023-03-23T05:33:31;7.64;54.72
71396;DHT22;59888;55.814;37.132;2023-03-23T05:36:05;7.79;54.56
71396;DHT22;59888;55.814;37.132;2023-03-23T05:39:04;7.97;53.37
71396;DHT22;59888;55.814;37.132;2023-03-23T05:41:52;8.06;53.69
71396;DHT22;59888;55.814;37.132;2023-03-23T05:44:22;8.15;54.04
71396;DHT22;59888;55.814;37.132;2023-03-23T05:46:51;8.31;53.84
71396;DHT22;59888;55.814;37.132;2023-03-23T05:49:18;8.39;53.13
71396;DHT22;59888;55.814;37.132;2023-03-23T05:51:45;8.46;53.15
71396;DHT22;59888;55.814;37.132;2023-03-23T05:54:13;8.53;53.25
71396;DHT22;59888;55.814;37.132;2023-03-23T05:56:41;8.68;52.24
71396;DHT22;59888;55.814;37.132;2023-03-23T05:59:22;8.78;52.81
71396;DHT22;59888;55.814;37.132;2023-03-23T06:01:51;8.89;52.20
71396;DHT22;59888;55.814;37.132;2023-03-23T06:04:19;8.93;52.39
71396;DHT22;59888;55.814;37.132;2023-03-23T06:07:00;9.05;52.37
71396;DHT22;59888;55.814;37.132;2023-03-23T06:09:28;9.15;52.12
71396;DHT22;59888;55.814;37.132;2023-03-23T06:12:03;9.27;51.74
71396;DHT22;59888;55.814;37.132;2023-03-23T06:14:48;9.40;51.51
71396;DHT22;59888;55.814;37.132;2023-03-23T06:17:18;9.50;51.38
71396;DHT22;59888;55.814;37.132;2023-03-23T06:19:47;9.64;51.10
71396;DHT22;59888;55.814;37.132;2023-03-23T06:22:17;9.75;50.91
71396;DHT22;59888;55.814;37.132;2023-03-23T06:24:53;9.81;50.79
71396;DHT22;59888;55.814;37.132;2023-03-23T06:27:25;9.93;50.40
71396;DHT22;59888;55.814;37.132;2023-03-23T06:29:54;10.00;50.33
71396;DHT22;59888;55.814;37.132;2023-03-23T06:32:21;10.11;50.18
71396;DHT22;59888;55.814;37.132;2023-03-23T06:34:48;10.21;49.90
71396;DHT22;59888;55.814;37.132;2023-03-23T06:37:41;10.21;49.69
71396;DHT22;59888;55.814;37.132;2023-03-23T06:40:14;10.27;49.77
71396;DHT22;59888;55.814;37.132;2023-03-23T06:42:43;10.38;49.49
71396;DHT22;59888;55.814;37.132;2023-03-23T06:45:35;10.40;49.25
71396;DHT22;59888;55.814;37.132;2023-03-23T06:48:27;10.48;48.98
71396;DHT22;59888;55.814;37.132;2023-03-23T06:50:53;10.45;49.10
71396;DHT22;59888;55.814;37.132;2023-03-23T06:53:20;10.52;49.00
71396;DHT22;59888;55.814;37.132;2023-03-23T06:55:47;10.64;48.60
71396;DHT22;59888;55.814;37.132;2023-03-23T06:58:13;10.71;48.57
71396;DHT22;59888;55.814;37.132;2023-03-23T07:00:39;10.70;48.27
71396;DHT22;59888;55.814;37.132;2023-03-23T07:03:08;10.73;48.61
71396;DHT22;59888;55.814;37.132;2023-03-23T07:05:35;10.75;48.28
71396;DHT22;59888;55.814;37.132;2023-03-23T07:08:02;10.81;47.89
71396;DHT22;59888;55.814;37.132;2023-03-23T07:10:40;10.81;47.76
71396;DHT22;59888;55.814;37.132;2023-03-23T07:13:07;10.84;48.02
71396;DHT22;59888;55.814;37.132;2023-03-23T07:15:44;10.92;47.75
71396;DHT22;59888;55.814;37.132;2023-03-23T07:18:10;10.87;47.73
71396;DHT22;59888;55.814;37.132;2023-03-23T07:20:46;10.89;47.44
71396;DHT22;59888;55.814;37.132;2023-03-23T07:23:14;10.95;47.15
71396;DHT22;59888;55.814;37.132;2023-03-23T07:25:49;10.99;47.61
71396;DHT22;59888;55.814;37.132;2023-03-23T07:28:22;11.08;47.01
71396;DHT22;59888;55.814;37.132;2023-03-23T07:30:48;11.13;47.17
71396;DHT22;59888;55.814;37.132;2023-03-23T07:33:15;11.20;46.71
71396;DHT22;59888;55.814;37.132;2023-03-23T07:35:41;11.30;46.95
71396;DHT22;59888;55.814;37.132;2023-03-23T07:38:10;11.45;46.50
71396;DHT22;59888;55.814;37.132;2023-03-23T07:40:56;11.57;46.60
71396;DHT22;59888;55.814;37.132;2023-03-23T07:43:24;11.67;46.03
71396;DHT22;59888;55.814;37.132;2023-03-23T07:46:15;11.71;46.33
71396;DHT22;59888;55.814;37.132;2023-03-23T08:10:34;11.76;45.30
71396;DHT22;59888;55.814;37.132;2023-03-23T08:13:17;11.92;44.98
71396;DHT22;59888;55.814;37.132;2023-03-23T08:16:07;12.12;45.80
71396;DHT22;59888;55.814;37.132;2023-03-23T08:18:53;12.33;45.38
71396;DHT22;59888;55.814;37.132;2023-03-23T08:21:39;12.50;45.67
71396;DHT22;59888;55.814;37.132;2023-03-23T08:24:05;12.57;44.42
71396;DHT22;59888;55.814;37.132;2023-03-23T08:26:51;12.62;44.40
71396;DHT22;59888;55.814;37.132;2023-03-23T08:29:20;12.70;43.95
71396;DHT22;59888;55.814;37.132;2023-03-23T08:32:15;12.70;43.89
71396;DHT22;59888;55.814;37.132;2023-03-23T08:34:53;12.84;43.55
71396;DHT22;59888;55.814;37.132;2023-03-23T08:37:43;12.95;43.00
71396;DHT22;59888;55.814;37.132;2023-03-23T08:40:34;12.94;40.94
71396;DHT22;59888;55.814;37.132;2023-03-23T08:43:18;12.93;42.38
71396;DHT22;59888;55.814;37.132;2023-03-23T08:46:03;13.02;42.17
71396;DHT22;59888;55.814;37.132;2023-03-23T08:48:53;13.05;42.67
71396;DHT22;59888;55.814;37.132;2023-03-23T08:51:55;13.19;42.29
71396;DHT22;59888;55.814;37.132;2023-03-23T08:54:34;13.27;41.77
71396;DHT22;59888;55.814;37.132;2023-03-23T08:57:29;13.31;40.04
71396;DHT22;59888;55.814;37.132;2023-03-23T09:00:20;13.37;41.00
71396;DHT22;59888;55.814;37.132;2023-03-23T09:03:03;13.48;42.12
71396;DHT22;59888;55.814;37.132;2023-03-23T09:05:40;13.51;41.02
71396;DHT22;59888;55.814;37.132;2023-03-23T09:08:26;13.59;40.55
71396;DHT22;59888;55.814;37.132;2023-03-23T09:10:58;13.58;41.17
71396;DHT22;59888;55.814;37.132;2023-03-23T09:13:24;13.63;41.32
71396;DHT22;59888;55.814;37.132;2023-03-23T09:15:50;13.77;39.00
71396;DHT22;59888;55.814;37.132;2023-03-23T09:18:16;13.81;40.23
71396;DHT22;59888;55.814;37.132;2023-03-23T09:20:44;13.79;40.75
71396;DHT22;59888;55.814;37.132;2023-03-23T09:23:10;13.86;41.07
71396;DHT22;59888;55.814;37.132;2023-03-23T09:25:38;13.99;38.62
71396;DHT22;59888;55.814;37.132;2023-03-23T09:28:05;14.06;41.38
71396;DHT22;59888;55.814;37.132;2023-03-23T09:30:32;14.09;40.33
71396;DHT22;59888;55.814;37.132;2023-03-23T09:33:03;14.15;40.37
71396;DHT22;59888;55.814;37.132;2023-03-23T09:35:49;14.22;39.68
71396;DHT22;59888;55.814;37.132;2023-03-23T09:38:15;14.32;40.82
71396;DHT22;59888;55.814;37.132;2023-03-23T09:49:20;14.57;39.32
71396;DHT22;59888;55.814;37.132;2023-03-23T09:51:57;14.71;39.22
71396;DHT22;59888;55.814;37.132;2023-03-23T09:54:34;14.82;40.09
71396;DHT22;59888;55.814;37.132;2023-03-23T09:57:03;14.89;40.01
71396;DHT22;59888;55.814;37.132;2023-03-23T09:59:44;14.89;38.66
71396;DHT22;59888;55.814;37.132;2023-03-23T10:02:24;15.00;39.80
71396;DHT22;59888;55.814;37.132;2023-03-23T10:04:54;15.13;38.97
71396;DHT22;59888;55.814;37.132;2023-03-23T10:07:26;15.14;38.10
71396;DHT22;59888;55.814;37.132;2023-03-23T10:09:57;15.18;38.78
71396;DHT22;59888;55.814;37.132;2023-03-23T10:15:49;15.11;38.18
71396;DHT22;59888;55.814;37.132;2023-03-23T10:18:36;14.99;36.96
71396;DHT22;59888;55.814;37.132;2023-03-23T10:21:02;14.97;36.79
71396;DHT22;59888;55.814;37.132;2023-03-23T10:29:28;14.93;37.93
71396;DHT22;59888;55.814;37.132;2023-03-23T10:31:59;14.97;36.39
71396;DHT22;59888;55.814;37.132;2023-03-23T10:39:51;15.06;35.30
71396;DHT22;59888;55.814;37.132;2023-03-23T10:42:32;15.13;37.05
71396;DHT22;59888;55.814;37.132;2023-03-23T10:47:42;15.19;36.03
71396;DHT22;59888;55.814;37.132;2023-03-23T10:50:13;15.28;36.57
71396;DHT22;59888;55.814;37.132;2023-03-23T10:52:44;15.34;36.86
71396;DHT22;59888;55.814;37.132;2023-03-23T10:55:15;15.48;36.93
71396;DHT22;59888;55.814;37.132;2023-03-23T10:57:47;15.52;36.47
71396;DHT22;59888;55.814;37.132;2023-03-23T11:00:25;15.49;36.45
71396;DHT22;59888;55.814;37.132;2023-03-23T11:03:03;15.36;34.37
71396;DHT22;59888;55.814;37.132;2023-03-23T11:05:36;15.28;35.67
71396;DHT22;59888;55.814;37.132;2023-03-23T11:08:03;15.19;36.66
71396;DHT22;59888;55.814;37.132;2023-03-23T11:10:39;15.17;36.67
71396;DHT22;59888;55.814;37.132;2023-03-23T11:13:13;15.04;37.11
71396;DHT22;59888;55.814;37.132;2023-03-23T11:15:41;14.89;36.76
71396;DHT22;59888;55.814;37.132;2023-03-23T11:18:12;14.93;37.34
71396;DHT22;59888;55.814;37.132;2023-03-23T11:20:43;14.81;37.81
71396;DHT22;59888;55.814;37.132;2023-03-23T11:23:21;14.83;37.32
71396;DHT22;59888;55.814;37.132;2023-03-23T11:28:28;14.87;37.92
71396;DHT22;59888;55.814;37.132;2023-03-23T11:30:55;14.92;37.95
71396;DHT22;59888;55.814;37.132;2023-03-23T11:33:22;15.03;38.26
71396;DHT22;59888;55.814;37.132;2023-03-23T11:35:52;15.21;37.75
71396;DHT22;59888;55.814;37.132;2023-03-23T11:38:20;15.24;37.61
71396;DHT22;59888;55.814;37.132;2023-03-23T11:40:50;15.22;37.33
71396;DHT22;59888;55.814;37.132;2023-03-23T11:43:21;15.03;36.91
71396;DHT22;59888;55.814;37.132;2023-03-23T11:49:01;15.03;36.50
71396;DHT22;59888;55.814;37.132;2023-03-23T11:56:43;15.14;38.10
71396;DHT22;59888;55.814;37.132;2023-03-23T11:59:12;15.15;36.56
71396;DHT22;59888;55.814;37.132;2023-03-23T12:04:37;15.18;37.70
71396;DHT22;59888;55.814;37.132;2023-03-23T12:17:49;15.01;36.78
71396;DHT22;59888;55.814;37.132;2023-03-23T12:48:35;15.99;37.88
71396;DHT22;59888;55.814;37.132;2023-03-23T12:56:27;15.48;37.10
71396;DHT22;59888;55.814;37.132;2023-03-23T12:59:06;15.26;37.22
71396;DHT22;59888;55.814;37.132;2023-03-23T13:01:40;15.12;37.40
71396;DHT22;59888;55.814;37.132;2023-03-23T13:04:30;14.99;37.97
71396;DHT22;59888;55.814;37.132;2023-03-23T13:07:01;14.99;38.38
71396;DHT22;59888;55.814;37.132;2023-03-23T13:12:19;14.87;38.17
71396;DHT22;59888;55.814;37.132;2023-03-23T13:23:15;14.40;38.43
71396;DHT22;59888;55.814;37.132;2023-03-23T13:26:13;14.33;38.91
71396;DHT22;59888;55.814;37.132;2023-03-23T13:31:30;14.14;39.27
71396;DHT22;59888;55.814;37.132;2023-03-23T13:34:24;14.07;39.16
71396;DHT22;59888;55.814;37.132;2023-03-23T13:36:57;14.01;39.49
71396;DHT22;59888;55.814;37.132;2023-03-23T13:39:27;13.93;39.52
71396;DHT22;59888;55.814;37.132;2023-03-23T13:50:08;14.43;39.75
71396;DHT22;59888;55.814;37.132;2023-03-23T13:55:38;15.66;37.56
71396;DHT22;59888;55.814;37.132;2023-03-23T14:05:43;14.67;38.75
71396;DHT22;59888;55.814;37.132;2023-03-23T14:10:59;14.29;39.30
71396;DHT22;59888;55.814;37.132;2023-03-23T14:16:28;14.05;39.78
71396;DHT22;59888;55.814;37.132;2023-03-23T14:19:01;14.00;39.91
71396;DHT22;59888;55.814;37.132;2023-03-23T14:21:36;14.06;39.88
71396;DHT22;59888;55.814;37.132;2023-03-23T14:24:27;14.36;39.61
71396;DHT22;59888;55.814;37.132;2023-03-23T14:29:30;14.55;39.56
71396;DHT22;59888;55.814;37.132;2023-03-23T14:31:58;14.60;39.59
71396;DHT22;59888;55.814;37.132;2023-03-23T14:34:26;14.69;39.10
71396;DHT22;59888;55.814;37.132;2023-03-23T14:36:56;14.86;39.25
71396;DHT22;59888;55.814;37.132;2023-03-23T14:41:55;15.40;38.70
71396;DHT22;59888;55.814;37.132;2023-03-23T14:44:27;15.98;37.72
71396;DHT22;59888;55.814;37.132;2023-03-23T14:46:54;15.86;37.62
71396;DHT22;59888;55.814;37.132;2023-03-23T14:49:29;15.78;37.94
71396;DHT22;59888;55.814;37.132;2023-03-23T14:51:56;15.68;38.08
71396;DHT22;59888;55.814;37.132;2023-03-23T14:54:27;15.51;38.19
71396;DHT22;59888;55.814;37.132;2023-03-23T14:56:54;15.36;38.37
71396;DHT22;59888;55.814;37.132;2023-03-23T14:59:20;15.10;38.40
71396;DHT22;59888;55.814;37.132;2023-03-23T15:01:47;14.80;38.91
71396;DHT22;59888;55.814;37.132;2023-03-23T15:04:26;14.51;39.23
71396;DHT22;59888;55.814;37.132;2023-03-23T15:06:55;14.34;39.58
71396;DHT22;59888;55.814;37.132;2023-03-23T15:09:23;14.18;39.87
71396;DHT22;59888;55.814;37.132;2023-03-23T15:11:58;14.03;40.07
71396;DHT22;59888;55.814;37.132;2023-03-23T15:14:28;13.83;40.23
71396;DHT22;59888;55.814;37.132;2023-03-23T15:16:57;13.65;40.68
71396;DHT22;59888;55.814;37.132;2023-03-23T15:19:45;13.52;40.87
71396;DHT22;59888;55.814;37.132;2023-03-23T15:22:26;13.38;41.07
71396;DHT22;59888;55.814;37.132;2023-03-23T15:27:34;13.16;41.42
71396;DHT22;59888;55.814;37.132;2023-03-23T15:30:32;13.01;41.68
71396;DHT22;59888;55.814;37.132;2023-03-23T15:33:08;12.92;41.84
71396;DHT22;59888;55.814;37.132;2023-03-23T15:35:39;12.85;41.95
71396;DHT22;59888;55.814;37.132;2023-03-23T15:38:20;12.80;42.10
71396;DHT22;59888;55.814;37.132;2023-03-23T15:40:50;12.72;42.15
71396;DHT22;59888;55.814;37.132;2023-03-23T15:43:19;12.65;42.46
71396;DHT22;59888;55.814;37.132;2023-03-23T15:48:19;12.52;42.46
71396;DHT22;59888;55.814;37.132;2023-03-23T15:50:47;12.45;42.73
71396;DHT22;59888;55.814;37.132;2023-03-23T15:53:26;12.44;42.90
71396;DHT22;59888;55.814;37.132;2023-03-23T15:55:53;12.38;42.77
71396;DHT22;59888;55.814;37.132;2023-03-23T15:58:19;12.33;42.75
71396;DHT22;59888;55.814;37.132;2023-03-23T16:00:45;12.29;42.82
71396;DHT22;59888;55.814;37.132;2023-03-23T16:03:22;12.21;43.18
71396;DHT22;59888;55.814;37.132;2023-03-23T16:05:50;12.13;43.12
71396;DHT22;59888;55.814;37.132;2023-03-23T16:08:16;12.06;43.26
71396;DHT22;59888;55.814;37.132;2023-03-23T16:10:42;12.04;43.34
71396;DHT22;59888;55.814;37.132;2023-03-23T16:13:08;11.97;43.45
71396;DHT22;59888;55.814;37.132;2023-03-23T16:15:34;11.91;43.51
71396;DHT22;59888;55.814;37.132;2023-03-23T16:18:00;11.89;43.64
71396;DHT22;59888;55.814;37.132;2023-03-23T16:20:29;11.88;43.67
71396;DHT22;59888;55.814;37.132;2023-03-23T16:22:55;11.82;43.67
71396;DHT22;59888;55.814;37.132;2023-03-23T16:25:21;11.76;43.70
71396;DHT22;59888;55.814;37.132;2023-03-23T16:27:47;11.72;43.89
71396;DHT22;59888;55.814;37.132;2023-03-23T16:30:25;11.68;44.08
71396;DHT22;59888;55.814;37.132;2023-03-23T16:32:51;11.63;44.03
71396;DHT22;59888;55.814;37.132;2023-03-23T16:35:18;11.61;44.11
71396;DHT22;59888;55.814;37.132;2023-03-23T16:37:50;11.59;44.26
71396;DHT22;59888;55.814;37.132;2023-03-23T16:40:18;11.55;44.23
71396;DHT22;59888;55.814;37.132;2023-03-23T16:42:44;11.54;44.27
71396;DHT22;59888;55.814;37.132;2023-03-23T16:45:11;11.49;44.25
71396;DHT22;59888;55.814;37.132;2023-03-23T16:47:37;11.45;44.32
71396;DHT22;59888;55.814;37.132;2023-03-23T16:50:05;11.40;44.50
71396;DHT22;59888;55.814;37.132;2023-03-23T16:52:33;11.41;44.51
71396;DHT22;59888;55.814;37.132;2023-03-23T16:54:58;11.39;44.47
71396;DHT22;59888;55.814;37.132;2023-03-23T16:57:25;11.38;44.51
71396;DHT22;59888;55.814;37.132;2023-03-23T16:59:51;11.37;44.54
71396;DHT22;59888;55.814;37.132;2023-03-23T17:02:17;11.33;44.48
71396;DHT22;59888;55.814;37.132;2023-03-23T17:04:44;11.31;45.06
71396;DHT22;59888;55.814;37.132;2023-03-23T17:07:11;11.30;44.67
71396;DHT22;59888;55.814;37.132;2023-03-23T17:09:38;11.28;44.67
71396;DHT22;59888;55.814;37.132;2023-03-23T17:12:04;11.26;44.88
71396;DHT22;59888;55.814;37.132;2023-03-23T17:14:30;11.23;44.89
71396;DHT22;59888;55.814;37.132;2023-03-23T17:16:56;11.22;45.03
71396;DHT22;59888;55.814;37.132;2023-03-23T17:19:22;11.19;45.09
71396;DHT22;59888;55.814;37.132;2023-03-23T17:21:48;11.17;44.90
71396;DHT22;59888;55.814;37.132;2023-03-23T17:24:16;11.14;45.19
71396;DHT22;59888;55.814;37.132;2023-03-23T17:26:42;11.13;45.05
71396;DHT22;59888;55.814;37.132;2023-03-23T17:29:08;11.10;44.98
71396;DHT22;59888;55.814;37.132;2023-03-23T17:31:33;11.03;45.45
71396;DHT22;59888;55.814;37.132;2023-03-23T17:33:59;11.02;45.27
71396;DHT22;59888;55.814;37.132;2023-03-23T17:36:25;11.01;45.11
71396;DHT22;59888;55.814;37.132;2023-03-23T17:38:51;11.00;45.51
71396;DHT22;59888;55.814;37.132;2023-03-23T17:41:17;10.99;45.19
71396;DHT22;59888;55.814;37.132;2023-03-23T17:43:46;10.98;45.56
71396;DHT22;59888;55.814;37.132;2023-03-23T17:46:12;10.99;45.56
71396;DHT22;59888;55.814;37.132;2023-03-23T17:48:38;10.99;45.39
71396;DHT22;59888;55.814;37.132;2023-03-23T17:51:04;10.97;45.75
71396;DHT22;59888;55.814;37.132;2023-03-23T17:53:33;10.98;45.83
71396;DHT22;59888;55.814;37.132;2023-03-23T17:56:00;10.96;45.92
71396;DHT22;59888;55.814;37.132;2023-03-23T17:58:26;10.97;46.08
71396;DHT22;59888;55.814;37.132;2023-03-23T18:00:55;10.96;45.74
71396;DHT22;59888;55.814;37.132;2023-03-23T18:03:22;10.93;46.25
71396;DHT22;59888;55.814;37.132;2023-03-23T18:05:49;10.93;45.96
71396;DHT22;59888;55.814;37.132;2023-03-23T18:08:17;10.95;46.15
71396;DHT22;59888;55.814;37.132;2023-03-23T18:10:43;10.96;46.28
71396;DHT22;59888;55.814;37.132;2023-03-23T18:13:09;10.92;46.09
71396;DHT22;59888;55.814;37.132;2023-03-23T18:15:36;10.90;46.62
71396;DHT22;59888;55.814;37.132;2023-03-23T18:18:03;10.92;46.31
71396;DHT22;59888;55.814;37.132;2023-03-23T18:20:30;10.92;46.18
71396;DHT22;59888;55.814;37.132;2023-03-23T18:22:57;10.90;46.21
71396;DHT22;59888;55.814;37.132;2023-03-23T18:25:23;10.89;47.21
71396;DHT22;59888;55.814;37.132;2023-03-23T18:27:49;10.88;45.96
71396;DHT22;59888;55.814;37.132;2023-03-23T18:30:15;10.86;46.86
71396;DHT22;59888;55.814;37.132;2023-03-23T18:32:41;10.87;46.38
71396;DHT22;59888;55.814;37.132;2023-03-23T18:35:09;10.85;47.89
71396;DHT22;59888;55.814;37.132;2023-03-23T18:37:36;10.83;46.46
71396;DHT22;59888;55.814;37.132;2023-03-23T18:40:08;10.82;46.46
71396;DHT22;59888;55.814;37.132;2023-03-23T18:42:39;10.80;46.95